Terminal Aerodrome Forecast
Issued by NWS Twin Cities, MN

Home | Current Version | Previous Version | Graphics & Text | Print | Product List | Glossary On
Versions: 1 2 3 4 5 6 7 8 9 10 11 12 13 14 15 16 17 18
000
FTUS43 KMPX 310900 AAA
TAFEAU
TAF AMD
KEAU 310900Z 3109/0106 00000KT 1/4SM FG VV002
      TEMPO 3109/3113 3SM BR BKN030
     FM311300 14008KT 4SM BR BKN015
     FM311500 16014G21KT P6SM SCT025 BKN100
     FM312200 18009KT P6SM VCTS SCT030CB BKN070
      TEMPO 0102/0106 1SM TSRA BKN015CB=

USA.gov is the U.S. government's official web portal to all federal, state and local government web resources and services.